sensor_id;sensor_type;location;lat;lon;timestamp;pressure;altitude;pressure_sealevel;temperature;humidity
5574;BME280;2563;52.242;7.956;2022-07-29T00:01:05;101033.66;;;16.40;100.00
5574;BME280;2563;52.242;7.956;2022-07-29T00:03:30;101028.59;;;16.36;100.00
5574;BME280;2563;52.242;7.956;2022-07-29T00:05:55;101037.25;;;16.37;100.00
5574;BME280;2563;52.242;7.956;2022-07-29T00:08:21;101032.13;;;16.35;100.00
5574;BME280;2563;52.242;7.956;2022-07-29T00:10:46;101029.56;;;16.34;100.00
5574;BME280;2563;52.242;7.956;2022-07-29T00:13:12;101020.94;;;16.33;100.00
5574;BME280;2563;52.242;7.956;2022-07-29T00:15:37;101016.59;;;16.34;100.00
5574;BME280;2563;52.242;7.956;2022-07-29T00:18:03;101015.63;;;16.36;100.00
5574;BME280;2563;52.242;7.956;2022-07-29T00:20:28;101013.16;;;16.33;100.00
5574;BME280;2563;52.242;7.956;2022-07-29T00:22:54;101012.31;;;16.33;100.00
5574;BME280;2563;52.242;7.956;2022-07-29T00:25:19;101006.25;;;16.32;100.00
5574;BME280;2563;52.242;7.956;2022-07-29T00:27:44;101007.16;;;16.31;100.00
5574;BME280;2563;52.242;7.956;2022-07-29T00:30:11;100998.53;;;16.31;100.00
5574;BME280;2563;52.242;7.956;2022-07-29T00:32:37;100996.81;;;16.30;100.00
5574;BME280;2563;52.242;7.956;2022-07-29T00:35:03;100990.78;;;16.29;100.00
5574;BME280;2563;52.242;7.956;2022-07-29T00:37:47;100991.63;;;16.30;100.00
5574;BME280;2563;52.242;7.956;2022-07-29T00:40:12;100995.19;;;16.27;100.00
5574;BME280;2563;52.242;7.956;2022-07-29T00:42:48;100982.34;;;16.24;100.00
5574;BME280;2563;52.242;7.956;2022-07-29T00:45:15;100985.06;;;16.21;100.00
5574;BME280;2563;52.242;7.956;2022-07-29T00:47:41;100987.69;;;16.21;100.00
5574;BME280;2563;52.242;7.956;2022-07-29T00:50:08;100983.56;;;16.15;100.00
5574;BME280;2563;52.242;7.956;2022-07-29T00:52:36;100984.41;;;16.16;100.00
5574;BME280;2563;52.242;7.956;2022-07-29T00:55:04;100985.44;;;16.12;100.00
5574;BME280;2563;52.242;7.956;2022-07-29T00:57:30;100974.28;;;16.10;100.00
5574;BME280;2563;52.242;7.956;2022-07-29T00:59:55;100985.63;;;16.07;100.00
5574;BME280;2563;52.242;7.956;2022-07-29T01:02:21;100979.59;;;16.07;100.00
5574;BME280;2563;52.242;7.956;2022-07-29T01:04:46;100976.22;;;16.05;100.00
5574;BME280;2563;52.242;7.956;2022-07-29T01:07:12;100977.28;;;15.99;100.00
5574;BME280;2563;52.242;7.956;2022-07-29T01:09:38;100988.63;;;15.97;100.00
5574;BME280;2563;52.242;7.956;2022-07-29T01:12:04;100981.78;;;15.95;100.00
5574;BME280;2563;52.242;7.956;2022-07-29T01:14:31;100974.88;;;15.94;100.00
5574;BME280;2563;52.242;7.956;2022-07-29T01:17:03;100971.50;;;15.92;100.00
5574;BME280;2563;52.242;7.956;2022-07-29T01:30:07;100950.97;;;15.86;100.00
5574;BME280;2563;52.242;7.956;2022-07-29T01:32:36;100950.19;;;15.84;100.00
5574;BME280;2563;52.242;7.956;2022-07-29T01:35:05;100945.06;;;15.83;100.00
5574;BME280;2563;52.242;7.956;2022-07-29T01:37:48;100948.50;;;15.83;100.00
5574;BME280;2563;52.242;7.956;2022-07-29T01:40:33;100954.59;;;15.82;100.00
5574;BME280;2563;52.242;7.956;2022-07-29T01:43:05;100946.88;;;15.81;100.00
5574;BME280;2563;52.242;7.956;2022-07-29T01:45:39;100942.66;;;15.78;100.00
5574;BME280;2563;52.242;7.956;2022-07-29T01:48:13;100953.03;;;15.78;100.00
5574;BME280;2563;52.242;7.956;2022-07-29T01:50:47;100945.13;;;15.81;100.00
5574;BME280;2563;52.242;7.956;2022-07-29T01:53:18;100945.25;;;15.78;100.00
5574;BME280;2563;52.242;7.956;2022-07-29T01:55:48;100946.97;;;15.78;100.00
5574;BME280;2563;52.242;7.956;2022-07-29T01:58:18;100937.69;;;15.72;100.00
5574;BME280;2563;52.242;7.956;2022-07-29T02:00:46;100932.56;;;15.70;100.00
5574;BME280;2563;52.242;7.956;2022-07-29T02:03:14;100932.72;;;15.66;100.00
5574;BME280;2563;52.242;7.956;2022-07-29T02:05:42;100927.53;;;15.66;100.00
5574;BME280;2563;52.242;7.956;2022-07-29T02:08:10;100929.34;;;15.64;100.00
5574;BME280;2563;52.242;7.956;2022-07-29T02:10:37;100932.13;;;15.59;100.00
5574;BME280;2563;52.242;7.956;2022-07-29T02:13:05;100935.69;;;15.57;100.00
5574;BME280;2563;52.242;7.956;2022-07-29T02:15:32;100931.38;;;15.56;100.00
5574;BME280;2563;52.242;7.956;2022-07-29T02:18:12;100927.03;;;15.56;100.00
5574;BME280;2563;52.242;7.956;2022-07-29T02:20:46;100919.44;;;15.51;100.00
5574;BME280;2563;52.242;7.956;2022-07-29T02:23:12;100910.00;;;15.49;100.00
5574;BME280;2563;52.242;7.956;2022-07-29T02:25:41;100913.56;;;15.46;100.00
5574;BME280;2563;52.242;7.956;2022-07-29T02:28:07;100917.88;;;15.47;100.00
5574;BME280;2563;52.242;7.956;2022-07-29T02:30:35;100912.69;;;15.47;100.00
5574;BME280;2563;52.242;7.956;2022-07-29T02:33:02;100909.28;;;15.45;100.00
5574;BME280;2563;52.242;7.956;2022-07-29T02:35:29;100909.28;;;15.45;100.00
5574;BME280;2563;52.242;7.956;2022-07-29T02:37:55;100908.38;;;15.46;100.00
5574;BME280;2563;52.242;7.956;2022-07-29T02:40:41;100908.50;;;15.43;100.00
5574;BME280;2563;52.242;7.956;2022-07-29T02:43:09;100919.00;;;15.40;100.00
5574;BME280;2563;52.242;7.956;2022-07-29T02:45:35;100910.31;;;15.41;100.00
5574;BME280;2563;52.242;7.956;2022-07-29T02:48:06;100920.75;;;15.40;100.00
5574;BME280;2563;52.242;7.956;2022-07-29T02:50:41;100918.88;;;15.43;100.00
5574;BME280;2563;52.242;7.956;2022-07-29T02:58:15;100914.03;;;15.34;100.00
5574;BME280;2563;52.242;7.956;2022-07-29T03:00:47;100907.31;;;15.30;100.00
5574;BME280;2563;52.242;7.956;2022-07-29T03:03:16;100912.50;;;15.30;100.00
5574;BME280;2563;52.242;7.956;2022-07-29T03:05:42;100905.56;;;15.30;100.00
5574;BME280;2563;52.242;7.956;2022-07-29T03:08:09;100909.16;;;15.26;100.00
5574;BME280;2563;52.242;7.956;2022-07-29T03:10:37;100918.81;;;15.23;100.00
5574;BME280;2563;52.242;7.956;2022-07-29T03:13:05;100918.03;;;15.21;100.00
5574;BME280;2563;52.242;7.956;2022-07-29T03:15:30;100919.81;;;15.19;100.00
5574;BME280;2563;52.242;7.956;2022-07-29T03:17:56;100905.06;;;15.21;100.00
5574;BME280;2563;52.242;7.956;2022-07-29T03:20:22;100913.63;;;15.23;100.00
5574;BME280;2563;52.242;7.956;2022-07-29T03:22:47;100921.50;;;15.20;100.00
5574;BME280;2563;52.242;7.956;2022-07-29T03:25:15;100915.31;;;15.24;100.00
5574;BME280;2563;52.242;7.956;2022-07-29T03:27:41;100917.09;;;15.22;100.00
5574;BME280;2563;52.242;7.956;2022-07-29T03:30:07;100910.25;;;15.21;100.00
5574;BME280;2563;52.242;7.956;2022-07-29T03:32:34;100909.28;;;15.23;100.00
5574;BME280;2563;52.242;7.956;2022-07-29T03:34:59;100917.09;;;15.22;100.00
5574;BME280;2563;52.242;7.956;2022-07-29T03:37:25;100906.03;;;15.18;100.00
5574;BME280;2563;52.242;7.956;2022-07-29T03:39:52;100904.44;;;15.14;100.00
5574;BME280;2563;52.242;7.956;2022-07-29T03:42:21;100902.81;;;15.12;100.00
5574;BME280;2563;52.242;7.956;2022-07-29T03:44:47;100907.16;;;15.11;100.00
5574;BME280;2563;52.242;7.956;2022-07-29T03:47:17;100903.75;;;15.09;100.00
5574;BME280;2563;52.242;7.956;2022-07-29T03:49:46;100912.50;;;15.06;100.00
5574;BME280;2563;52.242;7.956;2022-07-29T03:52:13;100908.16;;;15.07;100.00
5574;BME280;2563;52.242;7.956;2022-07-29T03:54:39;100898.66;;;15.06;100.00
5574;BME280;2563;52.242;7.956;2022-07-29T03:57:05;100898.78;;;15.03;100.00
5574;BME280;2563;52.242;7.956;2022-07-29T03:59:32;100894.56;;;15.00;100.00
5574;BME280;2563;52.242;7.956;2022-07-29T04:02:00;100898.13;;;14.98;100.00
5574;BME280;2563;52.242;7.956;2022-07-29T04:04:26;100898.13;;;14.98;100.00
5574;BME280;2563;52.242;7.956;2022-07-29T04:06:51;100896.44;;;14.97;100.00
5574;BME280;2563;52.242;7.956;2022-07-29T04:09:16;100902.59;;;14.94;100.00
5574;BME280;2563;52.242;7.956;2022-07-29T04:11:42;100898.41;;;14.90;100.00
5574;BME280;2563;52.242;7.956;2022-07-29T04:14:07;100897.63;;;14.88;100.00
5574;BME280;2563;52.242;7.956;2022-07-29T04:16:33;100900.34;;;14.85;100.00
5574;BME280;2563;52.242;7.956;2022-07-29T04:18:59;100910.84;;;14.80;100.00
5574;BME280;2563;52.242;7.956;2022-07-29T04:21:24;100911.81;;;14.78;100.00
5574;BME280;2563;52.242;7.956;2022-07-29T04:23:50;100911.03;;;14.76;100.00
5574;BME280;2563;52.242;7.956;2022-07-29T04:26:16;100909.44;;;14.72;100.00
5574;BME280;2563;52.242;7.956;2022-07-29T04:28:42;100908.56;;;14.73;100.00
5574;BME280;2563;52.242;7.956;2022-07-29T04:31:08;100917.22;;;14.72;100.00
5574;BME280;2563;52.242;7.956;2022-07-29T04:33:33;100907.75;;;14.71;100.00
5574;BME280;2563;52.242;7.956;2022-07-29T04:35:59;100908.63;;;14.70;100.00
5574;BME280;2563;52.242;7.956;2022-07-29T04:38:24;100911.22;;;14.70;100.00
5574;BME280;2563;52.242;7.956;2022-07-29T04:40:49;100906.13;;;14.68;100.00
5574;BME280;2563;52.242;7.956;2022-07-29T04:43:15;100905.16;;;14.71;100.00
5574;BME280;2563;52.242;7.956;2022-07-29T04:45:41;100894.56;;;14.77;100.00
5574;BME280;2563;52.242;7.956;2022-07-29T04:48:06;100902.13;;;14.83;100.00
5574;BME280;2563;52.242;7.956;2022-07-29T04:50:32;100903.53;;;14.92;100.00
5574;BME280;2563;52.242;7.956;2022-07-29T04:52:58;100904.06;;;15.01;100.00
5574;BME280;2563;52.242;7.956;2022-07-29T04:55:23;100913.97;;;15.14;100.00
5574;BME280;2563;52.242;7.956;2022-07-29T04:57:48;100909.19;;;15.25;100.00
5574;BME280;2563;52.242;7.956;2022-07-29T05:00:14;100912.66;;;15.25;100.00
5574;BME280;2563;52.242;7.956;2022-07-29T05:02:39;100914.03;;;15.34;100.00
5574;BME280;2563;52.242;7.956;2022-07-29T05:05:05;100906.38;;;15.31;100.00
5574;BME280;2563;52.242;7.956;2022-07-29T05:07:30;100904.50;;;15.35;100.00
5574;BME280;2563;52.242;7.956;2022-07-29T05:09:55;100901.88;;;15.36;100.00
5574;BME280;2563;52.242;7.956;2022-07-29T05:12:23;100895.78;;;15.37;100.00
5574;BME280;2563;52.242;7.956;2022-07-29T05:14:48;100894.88;;;15.38;100.00
5574;BME280;2563;52.242;7.956;2022-07-29T05:17:13;100895.66;;;15.40;100.00
5574;BME280;2563;52.242;7.956;2022-07-29T05:19:39;100895.88;;;15.34;100.00
5574;BME280;2563;52.242;7.956;2022-07-29T05:22:04;100895.78;;;15.37;100.00
5574;BME280;2563;52.242;7.956;2022-07-29T05:24:29;100891.34;;;15.39;100.00
5574;BME280;2563;52.242;7.956;2022-07-29T05:26:55;100902.66;;;15.38;100.00
5574;BME280;2563;52.242;7.956;2022-07-29T05:29:20;100898.38;;;15.37;100.00
5574;BME280;2563;52.242;7.956;2022-07-29T05:31:46;100905.91;;;15.43;100.00
5574;BME280;2563;52.242;7.956;2022-07-29T05:34:11;100910.13;;;15.46;100.00
5574;BME280;2563;52.242;7.956;2022-07-29T05:36:36;100907.50;;;15.47;100.00
5574;BME280;2563;52.242;7.956;2022-07-29T05:39:02;100909.91;;;15.52;100.00
5574;BME280;2563;52.242;7.956;2022-07-29T05:41:27;100906.03;;;15.62;100.00
5574;BME280;2563;52.242;7.956;2022-07-29T05:43:52;100908.34;;;15.70;100.00
5574;BME280;2563;52.242;7.956;2022-07-29T05:46:18;100915.78;;;15.79;100.00
5574;BME280;2563;52.242;7.956;2022-07-29T05:48:43;100910.22;;;15.88;100.00
5574;BME280;2563;52.242;7.956;2022-07-29T05:51:08;100918.53;;;15.97;100.00
5574;BME280;2563;52.242;7.956;2022-07-29T05:53:35;100914.72;;;16.05;100.00
5574;BME280;2563;52.242;7.956;2022-07-29T05:56:03;100922.16;;;16.14;100.00
5574;BME280;2563;52.242;7.956;2022-07-29T05:58:29;100918.28;;;16.23;100.00
5574;BME280;2563;52.242;7.956;2022-07-29T06:00:55;100920.31;;;16.37;100.00
5574;BME280;2563;52.242;7.956;2022-07-29T06:03:24;100924.53;;;16.40;100.00
5574;BME280;2563;52.242;7.956;2022-07-29T06:05:49;100917.38;;;16.45;100.00
5574;BME280;2563;52.242;7.956;2022-07-29T06:08:15;100918.03;;;16.70;100.00
5574;BME280;2563;52.242;7.956;2022-07-29T06:10:40;100917.09;;;16.92;100.00
5574;BME280;2563;52.242;7.956;2022-07-29T06:13:05;100920.72;;;17.27;100.00
5574;BME280;2563;52.242;7.956;2022-07-29T06:15:31;100933.28;;;17.55;100.00
5574;BME280;2563;52.242;7.956;2022-07-29T06:17:57;100919.75;;;17.66;100.00
5574;BME280;2563;52.242;7.956;2022-07-29T06:20:22;100925.34;;;17.76;100.00
5574;BME280;2563;52.242;7.956;2022-07-29T06:22:47;100927.03;;;17.40;100.00
5574;BME280;2563;52.242;7.956;2022-07-29T06:25:13;100932.41;;;17.55;100.00
5574;BME280;2563;52.242;7.956;2022-07-29T06:27:38;100937.28;;;17.62;100.00
5574;BME280;2563;52.242;7.956;2022-07-29T06:30:04;100929.41;;;18.00;100.00
5574;BME280;2563;52.242;7.956;2022-07-29T06:32:32;100924.34;;;17.97;100.00
5574;BME280;2563;52.242;7.956;2022-07-29T06:34:57;100933.88;;;18.16;100.00
5574;BME280;2563;52.242;7.956;2022-07-29T06:37:23;100923.97;;;18.40;100.00
5574;BME280;2563;52.242;7.956;2022-07-29T06:39:48;100923.06;;;18.23;100.00
5574;BME280;2563;52.242;7.956;2022-07-29T06:42:33;100928.72;;;17.97;100.00
5574;BME280;2563;52.242;7.956;2022-07-29T06:44:59;100940.91;;;18.14;100.00
5574;BME280;2563;52.242;7.956;2022-07-29T06:47:24;100939.69;;;18.56;100.00
5574;BME280;2563;52.242;7.956;2022-07-29T06:49:50;100939.28;;;18.28;100.00
5574;BME280;2563;52.242;7.956;2022-07-29T06:52:15;100935.03;;;18.27;100.00
5574;BME280;2563;52.242;7.956;2022-07-29T06:54:40;100942.16;;;18.41;100.00
5574;BME280;2563;52.242;7.956;2022-07-29T06:57:12;100941.91;;;18.28;100.00
5574;BME280;2563;52.242;7.956;2022-07-29T06:59:38;100933.53;;;18.57;100.00
5574;BME280;2563;52.242;7.956;2022-07-29T07:02:03;100943.31;;;18.69;100.00
5574;BME280;2563;52.242;7.956;2022-07-29T07:04:28;100938.94;;;18.69;100.00
5574;BME280;2563;52.242;7.956;2022-07-29T07:06:54;100939.03;;;18.68;100.00
5574;BME280;2563;52.242;7.956;2022-07-29T07:09:20;100939.69;;;18.89;100.00
5574;BME280;2563;52.242;7.956;2022-07-29T07:11:46;100939.34;;;18.62;100.00
5574;BME280;2563;52.242;7.956;2022-07-29T07:14:11;100938.94;;;18.69;100.00
5574;BME280;2563;52.242;7.956;2022-07-29T07:16:36;100947.06;;;19.14;100.00
5574;BME280;2563;52.242;7.956;2022-07-29T07:19:02;100946.31;;;19.44;100.00
5574;BME280;2563;52.242;7.956;2022-07-29T07:21:27;100942.31;;;19.54;100.00
5574;BME280;2563;52.242;7.956;2022-07-29T07:23:52;100946.84;;;19.66;100.00
5574;BME280;2563;52.242;7.956;2022-07-29T07:26:18;100947.97;;;20.08;100.00
5574;BME280;2563;52.242;7.956;2022-07-29T07:28:43;100948.03;;;20.37;100.00
5574;BME280;2563;52.242;7.956;2022-07-29T07:31:09;100940.59;;;20.45;100.00
5574;BME280;2563;52.242;7.956;2022-07-29T07:33:34;100945.63;;;20.48;100.00
5574;BME280;2563;52.242;7.956;2022-07-29T07:36:00;100936.84;;;20.49;100.00
5574;BME280;2563;52.242;7.956;2022-07-29T07:38:25;100945.63;;;20.48;100.00
5574;BME280;2563;52.242;7.956;2022-07-29T07:40:50;100932.41;;;20.66;100.00
5574;BME280;2563;52.242;7.956;2022-07-29T07:43:16;100938.59;;;20.79;100.00
5574;BME280;2563;52.242;7.956;2022-07-29T07:45:41;100930.63;;;20.80;100.00
5574;BME280;2563;52.242;7.956;2022-07-29T07:48:07;100934.66;;;20.86;100.00
5574;BME280;2563;52.242;7.956;2022-07-29T07:50:35;100935.22;;;20.63;100.00
5574;BME280;2563;52.242;7.956;2022-07-29T07:53:00;100935.81;;;20.52;100.00
5574;BME280;2563;52.242;7.956;2022-07-29T07:55:27;100945.06;;;20.13;100.00
5574;BME280;2563;52.242;7.956;2022-07-29T07:57:54;100938.66;;;20.18;100.00
5574;BME280;2563;52.242;7.956;2022-07-29T08:00:20;100932.66;;;20.02;100.00
5574;BME280;2563;52.242;7.956;2022-07-29T08:02:45;100938.41;;;19.93;100.00
5574;BME280;2563;52.242;7.956;2022-07-29T08:05:12;100931.75;;;20.17;100.00
5574;BME280;2563;52.242;7.956;2022-07-29T08:07:41;100925.50;;;20.65;100.00
5574;BME280;2563;52.242;7.956;2022-07-29T08:10:07;100921.00;;;20.52;100.00
5574;BME280;2563;52.242;7.956;2022-07-29T08:12:32;100927.03;;;20.38;100.00
5574;BME280;2563;52.242;7.956;2022-07-29T08:14:58;100926.19;;;20.38;100.00
5574;BME280;2563;52.242;7.956;2022-07-29T08:17:23;100936.66;;;20.38;100.00
5574;BME280;2563;52.242;7.956;2022-07-29T08:19:49;100927.25;;;20.50;100.00
5574;BME280;2563;52.242;7.956;2022-07-29T08:22:15;100925.50;;;20.93;100.00
5574;BME280;2563;52.242;7.956;2022-07-29T08:24:40;100920.34;;;20.63;100.00
5574;BME280;2563;52.242;7.956;2022-07-29T08:27:12;100923.53;;;20.68;100.00
5574;BME280;2563;52.242;7.956;2022-07-29T08:29:38;100932.03;;;20.57;100.00
5574;BME280;2563;52.242;7.956;2022-07-29T08:32:04;100929.31;;;20.88;100.00
5574;BME280;2563;52.242;7.956;2022-07-29T08:34:29;100926.09;;;21.25;100.00
5574;BME280;2563;52.242;7.956;2022-07-29T08:36:55;100931.06;;;21.44;100.00
5574;BME280;2563;52.242;7.956;2022-07-29T08:39:21;100923.97;;;21.59;100.00
5574;BME280;2563;52.242;7.956;2022-07-29T08:41:47;100930.09;;;22.00;100.00
5574;BME280;2563;52.242;7.956;2022-07-29T08:44:15;100923.69;;;22.44;100.00
5574;BME280;2563;52.242;7.956;2022-07-29T08:46:41;100924.78;;;23.17;100.00
5574;BME280;2563;52.242;7.956;2022-07-29T08:49:07;100924.53;;;23.56;100.00
5574;BME280;2563;52.242;7.956;2022-07-29T08:51:33;100915.00;;;24.26;100.00
5574;BME280;2563;52.242;7.956;2022-07-29T08:54:01;100920.06;;;24.52;100.00
5574;BME280;2563;52.242;7.956;2022-07-29T08:56:27;100913.94;;;25.41;100.00
5574;BME280;2563;52.242;7.956;2022-07-29T08:58:52;100907.06;;;25.82;100.00
5574;BME280;2563;52.242;7.956;2022-07-29T09:01:23;100918.19;;;25.21;100.00
5574;BME280;2563;52.242;7.956;2022-07-29T09:03:49;100909.75;;;25.16;100.00
5574;BME280;2563;52.242;7.956;2022-07-29T09:06:17;100903.19;;;25.11;100.00
5574;BME280;2563;52.242;7.956;2022-07-29T09:08:43;100908.59;;;24.98;100.00
5574;BME280;2563;52.242;7.956;2022-07-29T09:11:09;100903.63;;;25.38;100.00
5574;BME280;2563;52.242;7.956;2022-07-29T09:13:36;100910.75;;;24.01;100.00
5574;BME280;2563;52.242;7.956;2022-07-29T09:16:01;100893.50;;;24.66;100.00
5574;BME280;2563;52.242;7.956;2022-07-29T09:18:38;100903.38;;;23.58;100.00
5574;BME280;2563;52.242;7.956;2022-07-29T09:21:08;100900.41;;;23.14;100.00
5574;BME280;2563;52.242;7.956;2022-07-29T09:24:07;100893.41;;;23.87;100.00
5574;BME280;2563;52.242;7.956;2022-07-29T09:26:35;100894.75;;;24.62;100.00
5574;BME280;2563;52.242;7.956;2022-07-29T09:29:11;100902.78;;;24.25;100.00
5574;BME280;2563;52.242;7.956;2022-07-29T09:31:39;100893.69;;;24.07;100.00
5574;BME280;2563;52.242;7.956;2022-07-29T09:34:05;100887.66;;;24.62;100.00
5574;BME280;2563;52.242;7.956;2022-07-29T09:36:38;100894.25;;;24.68;100.00
5574;BME280;2563;52.242;7.956;2022-07-29T09:39:04;100896.63;;;23.91;100.00
5574;BME280;2563;52.242;7.956;2022-07-29T09:41:29;100895.50;;;23.82;100.00
5574;BME280;2563;52.242;7.956;2022-07-29T09:44:08;100894.41;;;24.20;100.00
5574;BME280;2563;52.242;7.956;2022-07-29T09:46:33;100892.78;;;23.84;100.00
5574;BME280;2563;52.242;7.956;2022-07-29T09:49:10;100883.88;;;24.09;100.00
5574;BME280;2563;52.242;7.956;2022-07-29T09:51:36;100894.22;;;24.46;100.00
5574;BME280;2563;52.242;7.956;2022-07-29T09:54:21;100893.59;;;24.19;100.00
5574;BME280;2563;52.242;7.956;2022-07-29T09:56:47;100899.53;;;23.75;100.00
5574;BME280;2563;52.242;7.956;2022-07-29T09:59:13;100897.19;;;23.83;100.00
5574;BME280;2563;52.242;7.956;2022-07-29T10:01:39;100899.66;;;23.49;100.00
5574;BME280;2563;52.242;7.956;2022-07-29T10:04:04;100896.28;;;23.47;100.00
5574;BME280;2563;52.242;7.956;2022-07-29T10:06:30;100895.28;;;23.61;100.00
5574;BME280;2563;52.242;7.956;2022-07-29T10:09:07;100903.28;;;23.84;100.00
5574;BME280;2563;52.242;7.956;2022-07-29T10:11:33;100904.28;;;23.46;100.00
5574;BME280;2563;52.242;7.956;2022-07-29T10:13:58;100898.44;;;23.42;100.00
5574;BME280;2563;52.242;7.956;2022-07-29T10:16:24;100900.16;;;23.30;100.00
5574;BME280;2563;52.242;7.956;2022-07-29T10:18:50;100910.94;;;22.89;100.00
5574;BME280;2563;52.242;7.956;2022-07-29T10:21:16;100910.66;;;23.30;100.00
5574;BME280;2563;52.242;7.956;2022-07-29T10:23:42;100901.78;;;23.44;100.00
5574;BME280;2563;52.242;7.956;2022-07-29T10:26:10;100904.44;;;23.55;100.00
5574;BME280;2563;52.242;7.956;2022-07-29T10:28:35;100901.16;;;23.41;100.00
5574;BME280;2563;52.242;7.956;2022-07-29T10:31:05;100903.09;;;23.26;100.00
5574;BME280;2563;52.242;7.956;2022-07-29T10:34:13;100896.69;;;23.54;100.00
5574;BME280;2563;52.242;7.956;2022-07-29T10:36:56;100887.44;;;23.48;100.00
5574;BME280;2563;52.242;7.956;2022-07-29T10:39:33;100887.19;;;23.40;100.00
5574;BME280;2563;52.242;7.956;2022-07-29T10:42:17;100892.13;;;22.95;100.00
5574;BME280;2563;52.242;7.956;2022-07-29T10:44:44;100891.88;;;23.24;100.00
5574;BME280;2563;52.242;7.956;2022-07-29T10:47:26;100897.03;;;23.12;100.00
5574;BME280;2563;52.242;7.956;2022-07-29T10:50:03;100894.84;;;22.93;100.00
5574;BME280;2563;52.242;7.956;2022-07-29T10:55:36;100894.09;;;22.67;100.00
5574;BME280;2563;52.242;7.956;2022-07-29T10:58:23;100897.34;;;22.33;100.00
5574;BME280;2563;52.242;7.956;2022-07-29T11:00:52;100900.47;;;22.76;100.00
5574;BME280;2563;52.242;7.956;2022-07-29T11:03:44;100896.72;;;22.67;100.00
5574;BME280;2563;52.242;7.956;2022-07-29T11:06:10;100894.19;;;22.66;100.00
5574;BME280;2563;52.242;7.956;2022-07-29T11:08:36;100888.09;;;22.52;100.00
5574;BME280;2563;52.242;7.956;2022-07-29T11:16:16;100881.78;;;22.55;100.00
5574;BME280;2563;52.242;7.956;2022-07-29T11:21:37;100891.97;;;22.47;100.00
5574;BME280;2563;52.242;7.956;2022-07-29T11:24:17;100892.94;;;22.46;100.00
5574;BME280;2563;52.242;7.956;2022-07-29T11:26:43;100886.84;;;22.58;100.00
5574;BME280;2563;52.242;7.956;2022-07-29T11:29:21;100881.69;;;22.57;100.00
5574;BME280;2563;52.242;7.956;2022-07-29T11:31:52;100885.59;;;22.51;100.00
5574;BME280;2563;52.242;7.956;2022-07-29T11:39:39;100882.09;;;22.50;100.00
5574;BME280;2563;52.242;7.956;2022-07-29T11:44:59;100882.84;;;22.65;100.00
5574;BME280;2563;52.242;7.956;2022-07-29T11:47:27;100895.22;;;22.76;100.00
5574;BME280;2563;52.242;7.956;2022-07-29T11:49:54;100885.25;;;22.68;100.00
5574;BME280;2563;52.242;7.956;2022-07-29T11:52:21;100884.97;;;22.60;100.00
5574;BME280;2563;52.242;7.956;2022-07-29T11:54:48;100875.94;;;22.51;100.00
5574;BME280;2563;52.242;7.956;2022-07-29T11:57:18;100884.94;;;22.47;100.00
5574;BME280;2563;52.242;7.956;2022-07-29T11:59:46;100883.72;;;22.53;100.00
5574;BME280;2563;52.242;7.956;2022-07-29T12:02:13;100881.28;;;22.63;100.00
5574;BME280;2563;52.242;7.956;2022-07-29T12:04:53;100879.81;;;22.59;100.00
5574;BME280;2563;52.242;7.956;2022-07-29T12:07:28;100873.59;;;22.60;100.00
5574;BME280;2563;52.242;7.956;2022-07-29T12:09:54;100875.41;;;22.34;100.00
5574;BME280;2563;52.242;7.956;2022-07-29T12:12:20;100879.94;;;22.32;100.00
5574;BME280;2563;52.242;7.956;2022-07-29T12:14:45;100873.41;;;22.37;100.00
5574;BME280;2563;52.242;7.956;2022-07-29T12:17:33;100881.50;;;22.34;100.00
5574;BME280;2563;52.242;7.956;2022-07-29T12:20:00;100888.69;;;22.18;100.00
5574;BME280;2563;52.242;7.956;2022-07-29T12:22:30;100889.88;;;22.26;100.00
5574;BME280;2563;52.242;7.956;2022-07-29T12:25:02;100885.13;;;22.06;100.00
5574;BME280;2563;52.242;7.956;2022-07-29T12:27:28;100880.09;;;22.03;100.00
5574;BME280;2563;52.242;7.956;2022-07-29T12:29:57;100895.16;;;21.99;100.00
5574;BME280;2563;52.242;7.956;2022-07-29T12:32:31;100895.47;;;21.95;100.00
5574;BME280;2563;52.242;7.956;2022-07-29T12:34:56;100896.81;;;21.87;100.00
5574;BME280;2563;52.242;7.956;2022-07-29T12:37:22;100900.78;;;21.80;100.00
5574;BME280;2563;52.242;7.956;2022-07-29T12:39:47;100895.16;;;21.86;100.00
5574;BME280;2563;52.242;7.956;2022-07-29T12:42:15;100901.25;;;22.00;100.00
5574;BME280;2563;52.242;7.956;2022-07-29T12:44:45;100893.47;;;21.85;100.00
5574;BME280;2563;52.242;7.956;2022-07-29T12:47:10;100904.53;;;21.76;100.00
5574;BME280;2563;52.242;7.956;2022-07-29T12:49:36;100903.53;;;21.79;100.00
5574;BME280;2563;52.242;7.956;2022-07-29T12:54:50;100913.34;;;21.75;100.00
5574;BME280;2563;52.242;7.956;2022-07-29T12:57:15;100908.19;;;21.61;100.00
5574;BME280;2563;52.242;7.956;2022-07-29T12:59:41;100912.91;;;21.41;100.00
5574;BME280;2563;52.242;7.956;2022-07-29T13:02:06;100904.41;;;21.23;100.00
5574;BME280;2563;52.242;7.956;2022-07-29T13:04:33;100905.88;;;21.00;100.00
5574;BME280;2563;52.242;7.956;2022-07-29T13:07:06;100906.25;;;20.94;100.00
5574;BME280;2563;52.242;7.956;2022-07-29T13:09:40;100900.16;;;20.94;100.00
5574;BME280;2563;52.242;7.956;2022-07-29T13:12:07;100898.97;;;20.71;100.00
5574;BME280;2563;52.242;7.956;2022-07-29T13:14:36;100893.09;;;20.67;100.00
5574;BME280;2563;52.242;7.956;2022-07-29T13:19:44;100884.22;;;20.11;100.00
5574;BME280;2563;52.242;7.956;2022-07-29T13:22:11;100869.91;;;19.88;100.00
5574;BME280;2563;52.242;7.956;2022-07-29T13:24:57;100857.34;;;19.79;100.00
5574;BME280;2563;52.242;7.956;2022-07-29T13:27:24;100851.28;;;19.62;100.00
5574;BME280;2563;52.242;7.956;2022-07-29T13:29:51;100849.97;;;19.71;100.00
5574;BME280;2563;52.242;7.956;2022-07-29T13:32:18;100852.31;;;19.75;100.00
5574;BME280;2563;52.242;7.956;2022-07-29T13:34:43;100855.84;;;19.74;100.00
5574;BME280;2563;52.242;7.956;2022-07-29T13:37:09;100842.97;;;19.71;100.00
5574;BME280;2563;52.242;7.956;2022-07-29T13:39:34;100843.03;;;19.70;100.00
5574;BME280;2563;52.242;7.956;2022-07-29T13:41:59;100836.81;;;19.72;100.00
5574;BME280;2563;52.242;7.956;2022-07-29T13:44:25;100841.88;;;19.60;100.00